Bungo Princess — 3FXV8 — position and weather

sailwx.info

Track history (hours):
 
Tides and Currents Weather Stations Pressure Air Temp Water Temp Dewpoint Dewpoint Depression Visibility Wind Speed Wind Dir Waves Ship Positions

Bungo Princess

Last reported at 2014-Nov-27 12:04 UTC. Time now 2014-Nov-28 08:32 UTC.
Position N 38°46' E 121°50'.

Length 103 m; draft 7 m.

Type: Cargo ship. MMSI: 355091000.

Date/timePositionNaut miles runAvg speedWind from/ knotsBaromVisibWave heightAir tempDewpointWater temp
2014-Nov-27 12:04N 38°46' E 121°50'712.9
2014-Nov-27 11:33N 38°51' E 121°46'2 0.1
2014-Nov-26 06:30N 38°53' E 121°47'  
2014-Nov-23 11:16N 31°06' E 122°33'7 9.0
2014-Nov-23 10:32N 31°06' E 122°25'1111.3
2014-Nov-23 09:32N 31°10' E 122°13'1313.8
2014-Nov-23 08:33N 31°15' E 121°58'1212.1
2014-Nov-23 07:33N 31°19' E 121°45'1010.0
2014-Nov-23 06:33N 31°23' E 121°34'4 4.0
2014-Nov-23 05:33N 31°22' E 121°30'0 0.1
2014-Nov-23 04:31N 31°22' E 121°30'0 0.0
2014-Nov-23 03:31N 31°22' E 121°30'0 0.0
2014-Nov-23 02:31N 31°22' E 121°30'0 0.0
2014-Nov-23 01:31N 31°22' E 121°30'0 0.0
2014-Nov-23 00:19N 31°22' E 121°30'0 0.0
2014-Nov-22 23:31N 31°22' E 121°30'0 0.0
2014-Nov-22 22:31N 31°22' E 121°30'0 0.0
2014-Nov-22 21:25N 31°22' E 121°30'0 0.0
2014-Nov-22 20:31N 31°22' E 121°30'0 0.0
2014-Nov-22 19:31N 31°22' E 121°30'0 0.0
2014-Nov-22 18:25N 31°22' E 121°30'0 0.0
2014-Nov-22 17:31N 31°22' E 121°30'0 0.0
2014-Nov-22 16:31N 31°22' E 121°30'0 0.0
2014-Nov-22 15:31N 31°22' E 121°30'0 0.0
2014-Nov-22 14:31N 31°22' E 121°30'0 0.0
2014-Nov-22 13:25N 31°22' E 121°30'0 0.0
2014-Nov-22 12:19N 31°22' E 121°30'0 0.0
2014-Nov-22 11:25N 31°22' E 121°30'0 0.0
2014-Nov-22 10:31N 31°22' E 121°30'0 0.0
2014-Nov-22 09:31N 31°22' E 121°30'0 0.0
2014-Nov-22 08:31N 31°22' E 121°30'0 0.0
2014-Nov-22 07:31N 31°22' E 121°30'0 0.0
2014-Nov-22 06:31N 31°22' E 121°30'0 0.0
2014-Nov-22 05:33N 31°22' E 121°30'0 0.0
2014-Nov-22 04:33N 31°22' E 121°30'0 0.0
2014-Nov-22 03:31N 31°22' E 121°30'0 0.0
2014-Nov-22 02:31N 31°22' E 121°30'0 0.0
2014-Nov-22 01:31N 31°22' E 121°30'0 0.0
2014-Nov-22 00:31N 31°22' E 121°30'0 0.0
2014-Nov-21 23:28N 31°22' E 121°30'0 0.0
2014-Nov-21 22:28N 31°22' E 121°30'0 0.0
2014-Nov-21 21:31N 31°22' E 121°30'0 0.0
2014-Nov-21 20:31N 31°22' E 121°30'0 0.0
2014-Nov-21 19:31N 31°22' E 121°30'0 0.1
2014-Nov-21 18:33N 31°22' E 121°30'4 3.6
2014-Nov-21 17:33N 31°23' E 121°34'5 4.7
2014-Nov-21 16:33N 31°21' E 121°39'8 8.3
2014-Nov-21 15:33N 31°18' E 121°48'1010.2
2014-Nov-21 14:33N 31°15' E 121°59'1111.3
2014-Nov-21 13:34N 31°11' E 122°11'  
Track history (hours):
 
Tides and Currents Weather Stations Pressure Air Temp Water Temp Dewpoint Dewpoint Depression Visibility Wind Speed Wind Dir Waves Ship Positions

Bungo Princess

Last reported at 2014-Nov-27 12:04 UTC. Time now 2014-Nov-28 08:32 UTC.
Position N 38°46' E 121°50'.

Length 103 m; draft 7 m.

Type: Cargo ship. MMSI: 355091000.

Date/timePositionNaut miles runAvg speedWind from/ knotsBaromVisibWave heightAir tempDewpointWater temp
2014-Nov-27 12:04N 38°46' E 121°50'712.9
2014-Nov-27 11:33N 38°51' E 121°46'2 0.1
2014-Nov-26 06:30N 38°53' E 121°47'  
2014-Nov-23 11:16N 31°06' E 122°33'7 9.0
2014-Nov-23 10:32N 31°06' E 122°25'1111.3
2014-Nov-23 09:32N 31°10' E 122°13'1313.8
2014-Nov-23 08:33N 31°15' E 121°58'1212.1
2014-Nov-23 07:33N 31°19' E 121°45'1010.0
2014-Nov-23 06:33N 31°23' E 121°34'4 4.0
2014-Nov-23 05:33N 31°22' E 121°30'0 0.1
2014-Nov-23 04:31N 31°22' E 121°30'0 0.0
2014-Nov-23 03:31N 31°22' E 121°30'0 0.0
2014-Nov-23 02:31N 31°22' E 121°30'0 0.0
2014-Nov-23 01:31N 31°22' E 121°30'0 0.0
2014-Nov-23 00:19N 31°22' E 121°30'0 0.0
2014-Nov-22 23:31N 31°22' E 121°30'0 0.0
2014-Nov-22 22:31N 31°22' E 121°30'0 0.0
2014-Nov-22 21:25N 31°22' E 121°30'0 0.0
2014-Nov-22 20:31N 31°22' E 121°30'0 0.0
2014-Nov-22 19:31N 31°22' E 121°30'0 0.0
2014-Nov-22 18:25N 31°22' E 121°30'0 0.0
2014-Nov-22 17:31N 31°22' E 121°30'0 0.0
2014-Nov-22 16:31N 31°22' E 121°30'0 0.0
2014-Nov-22 15:31N 31°22' E 121°30'0 0.0
2014-Nov-22 14:31N 31°22' E 121°30'0 0.0
2014-Nov-22 13:25N 31°22' E 121°30'0 0.0
2014-Nov-22 12:19N 31°22' E 121°30'0 0.0
2014-Nov-22 11:25N 31°22' E 121°30'0 0.0
2014-Nov-22 10:31N 31°22' E 121°30'0 0.0
2014-Nov-22 09:31N 31°22' E 121°30'0 0.0
2014-Nov-22 08:31N 31°22' E 121°30'0 0.0
2014-Nov-22 07:31N 31°22' E 121°30'0 0.0
2014-Nov-22 06:31N 31°22' E 121°30'0 0.0
2014-Nov-22 05:33N 31°22' E 121°30'0 0.0
2014-Nov-22 04:33N 31°22' E 121°30'0 0.0
2014-Nov-22 03:31N 31°22' E 121°30'0 0.0
2014-Nov-22 02:31N 31°22' E 121°30'0 0.0
2014-Nov-22 01:31N 31°22' E 121°30'0 0.0
2014-Nov-22 00:31N 31°22' E 121°30'0 0.0
2014-Nov-21 23:28N 31°22' E 121°30'0 0.0
2014-Nov-21 22:28N 31°22' E 121°30'0 0.0
2014-Nov-21 21:31N 31°22' E 121°30'0 0.0
2014-Nov-21 20:31N 31°22' E 121°30'0 0.0
2014-Nov-21 19:31N 31°22' E 121°30'0 0.1
2014-Nov-21 18:33N 31°22' E 121°30'4 3.6
2014-Nov-21 17:33N 31°23' E 121°34'5 4.7
2014-Nov-21 16:33N 31°21' E 121°39'8 8.3
2014-Nov-21 15:33N 31°18' E 121°48'1010.2
2014-Nov-21 14:33N 31°15' E 121°59'1111.3
2014-Nov-21 13:34N 31°11' E 122°11'  

Dump ship's entire track history